Time;durP1;ratioP1;P1;durP2;ratioP2;P2;SDS_P1;SDS_P2;PMS_P1;PMS_P2;Temp;Humidity;BMP_temperature;BMP_pressure;BME280_temperature;BME280_humidity;BME280_pressure;Samples;Min_cycle;Max_cycle;Signal;HPM_P1;HPM_P2
2024/03/11 00:02:22;;;;;;;30.80;24.73;;;9.10;99.90;;;;;;4982427;28;20049;-82
2024/03/11 00:04:50;;;;;;;28.52;22.25;;;9.00;99.90;;;;;;4994387;28;20108;-83
2024/03/11 00:07:16;;;;;;;29.08;22.58;;;9.00;99.90;;;;;;4992349;28;20040;-84
2024/03/11 00:09:48;;;;;;;29.10;21.25;;;9.00;99.90;;;;;;4989169;28;20029;-85
2024/03/11 00:12:17;;;;;;;27.25;19.63;;;9.00;99.90;;;;;;4977427;28;20037;-84
2024/03/11 00:14:47;;;;;;;32.75;22.63;;;9.00;99.90;;;;;;5032161;28;20400;-85
2024/03/11 00:17:14;;;;;;;28.40;22.80;;;9.00;99.90;;;;;;4996147;28;20370;-85
2024/03/11 00:19:41;;;;;;;34.83;26.77;;;9.00;99.90;;;;;;4991143;28;20034;-85
2024/03/11 00:22:07;;;;;;;33.05;24.40;;;8.90;99.90;;;;;;4961673;28;20037;-85
2024/03/11 00:24:35;;;;;;;28.92;22.13;;;8.90;99.90;;;;;;4993352;28;20034;-85
2024/03/11 00:27:07;;;;;;;30.83;23.65;;;8.90;99.90;;;;;;4988870;28;20029;-84
2024/03/11 00:29:37;;;;;;;34.20;26.95;;;9.00;99.90;;;;;;5002817;28;20033;-84
2024/03/11 00:32:07;;;;;;;31.88;25.05;;;8.90;99.90;;;;;;4996835;28;20038;-86
2024/03/11 00:34:34;;;;;;;27.70;20.83;;;9.00;99.90;;;;;;4964504;28;20468;-85
2024/03/11 00:37:01;;;;;;;31.15;24.90;;;8.90;99.90;;;;;;4989033;28;20044;-86
2024/03/11 00:39:27;;;;;;;31.70;24.75;;;8.90;99.90;;;;;;4976962;28;20688;-83
2024/03/11 00:41:54;;;;;;;32.90;25.15;;;8.90;99.90;;;;;;4955728;28;20442;-85
2024/03/11 00:44:21;;;;;;;34.40;26.02;;;8.90;99.90;;;;;;4973624;28;20854;-85
2024/03/11 00:46:49;;;;;;;31.13;23.17;;;8.90;99.90;;;;;;4990180;28;20380;-86
2024/03/11 00:49:16;;;;;;;33.38;25.58;;;8.80;99.90;;;;;;4993150;28;20405;-86
2024/03/11 00:51:44;;;;;;;30.50;25.15;;;8.80;99.90;;;;;;4956506;28;20041;-86
2024/03/11 00:54:11;;;;;;;33.72;27.00;;;8.80;99.90;;;;;;4987410;28;20044;-87
2024/03/11 00:56:38;;;;;;;32.50;25.00;;;8.80;99.90;;;;;;4986948;28;20543;-84
2024/03/11 00:59:05;;;;;;;31.17;23.15;;;8.80;99.90;;;;;;4985380;28;20435;-83
2024/03/11 01:01:31;;;;;;;38.22;29.15;;;8.80;99.90;;;;;;4970676;28;20045;-84
2024/03/11 01:03:58;;;;;;;33.25;25.98;;;8.80;99.90;;;;;;4979741;28;20048;-83
2024/03/11 01:06:26;;;;;;;33.45;25.70;;;8.80;99.90;;;;;;4976186;28;20038;-84
2024/03/11 01:08:54;;;;;;;30.50;23.27;;;8.80;99.90;;;;;;4990959;28;20029;-83
2024/03/11 01:11:23;;;;;;;30.88;23.50;;;8.80;99.90;;;;;;4973944;28;20037;-84
2024/03/11 01:13:49;;;;;;;35.33;26.95;;;8.80;99.90;;;;;;4974086;28;20484;-83
2024/03/11 01:16:16;;;;;;;39.78;31.30;;;8.80;99.90;;;;;;4969713;28;21084;-84
2024/03/11 01:18:43;;;;;;;42.42;31.83;;;8.80;99.90;;;;;;4986566;28;20041;-85
2024/03/11 01:21:09;;;;;;;33.08;25.25;;;8.80;99.90;;;;;;4997507;28;20044;-83
2024/03/11 01:23:36;;;;;;;32.83;24.25;;;8.80;99.90;;;;;;4986618;28;20018;-83
2024/03/11 01:26:06;;;;;;;31.48;24.67;;;8.80;99.90;;;;;;4993737;28;20415;-84
2024/03/11 01:28:33;;;;;;;33.97;24.45;;;8.80;99.90;;;;;;4959482;28;20032;-83
2024/03/11 01:31:00;;;;;;;31.65;24.90;;;8.90;99.90;;;;;;4974575;28;20773;-83
2024/03/11 01:33:27;;;;;;;32.88;25.48;;;8.90;99.90;;;;;;4957599;28;20048;-83
2024/03/11 01:35:54;;;;;;;34.13;26.65;;;8.90;99.90;;;;;;4959796;28;20325;-83
2024/03/11 01:38:21;;;;;;;34.92;25.95;;;8.90;99.90;;;;;;4980335;28;20033;-82
2024/03/11 01:40:47;;;;;;;31.90;24.88;;;8.90;99.90;;;;;;4979495;28;20038;-82
2024/03/11 01:43:16;;;;;;;37.05;27.38;;;8.90;99.90;;;;;;4994911;28;21254;-83
2024/03/11 01:45:42;;;;;;;34.15;26.85;;;8.90;99.90;;;;;;4958852;28;20037;-83
2024/03/11 01:48:10;;;;;;;32.67;26.17;;;8.90;99.90;;;;;;4961457;28;20042;-83
2024/03/11 01:50:38;;;;;;;30.30;23.13;;;8.90;99.90;;;;;;4965158;28;20033;-83
2024/03/11 01:53:05;;;;;;;35.95;26.33;;;8.90;99.90;;;;;;5003419;28;20052;-82
2024/03/11 01:55:33;;;;;;;34.78;25.67;;;8.90;99.90;;;;;;4980855;28;20045;-82
2024/03/11 01:58:03;;;;;;;30.80;24.10;;;8.90;99.90;;;;;;4975514;28;20037;-84
2024/03/11 02:00:29;;;;;;;33.38;25.38;;;8.90;99.90;;;;;;4974084;28;20032;-83
2024/03/11 02:02:56;;;;;;;36.22;28.10;;;8.90;99.90;;;;;;5005863;28;20944;-83
2024/03/11 02:05:24;;;;;;;34.17;26.48;;;9.00;99.90;;;;;;4961194;28;20030;-82
2024/03/11 02:07:59;;;;;;;31.70;25.02;;;8.90;99.90;;;;;;4997610;28;20044;-83
2024/03/11 02:10:27;;;;;;;35.85;27.10;;;8.90;99.90;;;;;;4964752;28;20056;-84
2024/03/11 02:12:53;;;;;;;31.75;23.63;;;8.90;99.90;;;;;;4990721;28;20682;-84
2024/03/11 02:15:20;;;;;;;36.05;25.83;;;8.90;99.90;;;;;;4956594;28;20037;-84
2024/03/11 02:17:47;;;;;;;32.92;25.48;;;8.90;99.90;;;;;;4974043;28;20059;-85
2024/03/11 02:20:18;;;;;;;30.52;24.02;;;8.80;99.90;;;;;;4989773;28;20445;-85
2024/03/11 02:22:47;;;;;;;34.00;26.77;;;8.80;99.90;;;;;;4992776;28;20046;-85
2024/03/11 02:25:15;;;;;;;36.13;27.08;;;8.80;99.90;;;;;;5003763;28;20044;-86
2024/03/11 02:27:42;;;;;;;36.05;28.00;;;8.70;99.90;;;;;;4982021;28;20030;-87
2024/03/11 02:30:09;;;;;;;37.95;29.90;;;8.70;99.90;;;;;;4991055;28;20025;-87
2024/03/11 02:32:35;;;;;;;36.13;28.25;;;8.70;99.90;;;;;;4974680;28;20045;-87
2024/03/11 02:35:02;;;;;;;34.42;26.80;;;8.70;99.90;;;;;;4961812;28;20489;-85
2024/03/11 02:37:28;;;;;;;37.92;28.52;;;8.70;99.90;;;;;;4974797;28;20025;-85
2024/03/11 02:39:55;;;;;;;33.80;26.15;;;8.70;99.90;;;;;;4993163;28;20048;-87
2024/03/11 02:42:21;;;;;;;29.83;24.10;;;8.60;99.90;;;;;;4969059;28;20473;-87
2024/03/11 02:44:48;;;;;;;32.25;24.45;;;8.70;99.90;;;;;;4987212;28;20480;-87
2024/03/11 02:47:15;;;;;;;31.17;23.27;;;8.60;99.90;;;;;;4997740;28;20042;-88
2024/03/11 02:49:42;;;;;;;30.30;23.65;;;8.60;99.90;;;;;;4980739;28;20025;-89
2024/03/11 02:52:09;;;;;;;32.58;23.60;;;8.60;99.90;;;;;;4997636;28;20901;-88
2024/03/11 02:54:37;;;;;;;30.38;22.55;;;8.50;99.90;;;;;;4983189;28;20046;-86
2024/03/11 02:57:05;;;;;;;34.35;24.92;;;8.60;99.90;;;;;;4980664;28;20033;-90
2024/03/11 02:59:33;;;;;;;30.35;23.95;;;8.50;99.90;;;;;;5002780;28;20059;-88
2024/03/11 03:02:00;;;;;;;29.77;23.17;;;8.50;99.90;;;;;;4966919;28;20026;-90
2024/03/11 03:04:27;;;;;;;33.15;26.38;;;8.50;99.90;;;;;;4965495;28;20549;-89
2024/03/11 03:06:57;;;;;;;35.70;26.38;;;8.50;99.90;;;;;;4994379;28;20519;-88
2024/03/11 03:09:24;;;;;;;33.80;26.05;;;8.50;99.90;;;;;;4962312;28;20663;-86
2024/03/11 03:11:51;;;;;;;30.75;22.63;;;8.40;99.90;;;;;;4979011;28;20484;-89
2024/03/11 03:14:18;;;;;;;29.65;22.40;;;8.40;99.90;;;;;;4986342;28;20691;-89
2024/03/11 03:16:44;;;;;;;30.83;23.35;;;8.40;99.90;;;;;;4969236;28;20514;-89
2024/03/11 03:19:11;;;;;;;32.80;23.95;;;8.40;99.90;;;;;;4995689;28;20045;-90
2024/03/11 03:21:37;;;;;;;30.85;23.45;;;8.40;99.90;;;;;;4992313;28;20022;-90
2024/03/11 03:24:03;;;;;;;31.00;23.75;;;8.40;99.90;;;;;;4975562;28;20048;-88
2024/03/11 03:26:30;;;;;;;32.40;24.80;;;8.40;99.90;;;;;;4961282;28;20033;-86
2024/03/11 03:28:56;;;;;;;36.08;27.02;;;8.40;99.90;;;;;;4977346;28;20038;-88
2024/03/11 03:31:23;;;;;;;36.58;26.55;;;8.40;99.90;;;;;;4966985;28;20477;-87
2024/03/11 03:33:50;;;;;;;42.60;31.42;;;8.40;99.90;;;;;;4981345;28;20364;-85
2024/03/11 03:36:18;;;;;;;38.33;28.55;;;8.30;99.90;;;;;;4975787;28;20063;-85
2024/03/11 03:38:45;;;;;;;36.17;27.60;;;8.20;99.90;;;;;;4959948;28;20037;-87
2024/03/11 03:41:12;;;;;;;33.78;25.88;;;8.20;99.90;;;;;;4976178;28;20365;-83
2024/03/11 03:43:38;;;;;;;31.02;24.27;;;8.20;99.90;;;;;;4975813;28;20037;-84
2024/03/11 03:46:05;;;;;;;28.95;22.10;;;8.20;99.90;;;;;;4993363;28;20695;-84
2024/03/11 03:48:33;;;;;;;33.97;24.55;;;8.20;99.90;;;;;;4968315;28;20052;-83
2024/03/11 03:51:03;;;;;;;32.90;24.52;;;8.10;99.90;;;;;;5001657;28;20399;-83
2024/03/11 03:53:30;;;;;;;35.60;26.00;;;8.10;99.90;;;;;;4984011;28;20392;-84
2024/03/11 03:55:57;;;;;;;31.15;24.00;;;8.10;99.90;;;;;;5025985;28;20029;-86
2024/03/11 03:58:24;;;;;;;33.05;24.98;;;8.10;99.90;;;;;;4960652;28;20041;-80
2024/03/11 04:00:50;;;;;;;32.90;24.85;;;8.10;99.90;;;;;;4976200;28;20037;-81
2024/03/11 04:03:18;;;;;;;39.10;29.75;;;8.10;99.90;;;;;;4978012;28;20512;-80
2024/03/11 04:05:51;;;;;;;42.58;30.10;;;8.10;99.90;;;;;;4995232;28;20048;-83
2024/03/11 04:08:19;;;;;;;35.63;27.27;;;8.00;99.90;;;;;;5002839;28;20489;-82
2024/03/11 04:10:46;;;;;;;35.50;27.15;;;8.00;99.90;;;;;;4996907;28;20434;-84
2024/03/11 04:13:13;;;;;;;39.95;28.80;;;8.00;99.90;;;;;;4992021;28;20548;-83
2024/03/11 04:15:42;;;;;;;33.67;25.58;;;8.00;99.90;;;;;;4975106;28;20064;-80
2024/03/11 04:18:10;;;;;;;35.67;26.95;;;7.90;99.90;;;;;;4992387;28;20041;-88
2024/03/11 04:20:37;;;;;;;37.90;28.70;;;7.90;99.90;;;;;;4993245;28;20060;-82
2024/03/11 04:23:07;;;;;;;34.55;26.42;;;7.90;99.90;;;;;;4980705;28;20052;-83
2024/03/11 04:25:38;;;;;;;39.45;29.80;;;7.90;99.90;;;;;;4967396;28;20017;-81
2024/03/11 04:28:05;;;;;;;37.70;27.48;;;7.80;99.90;;;;;;4981834;28;20044;-83
2024/03/11 04:30:39;;;;;;;46.70;34.25;;;7.80;99.90;;;;;;4976100;28;20495;-82
2024/03/11 04:33:06;;;;;;;47.50;35.55;;;7.80;99.90;;;;;;4959813;28;21969;-82
2024/03/11 04:35:34;;;;;;;44.00;33.00;;;7.80;99.90;;;;;;4990253;28;20044;-88
2024/03/11 04:38:03;;;;;;;41.60;31.13;;;7.70;99.90;;;;;;4991146;28;20029;-85
2024/03/11 04:40:34;;;;;;;50.97;37.30;;;7.70;99.90;;;;;;4994553;28;20033;-85
2024/03/11 04:43:02;;;;;;;44.92;34.20;;;7.70;99.90;;;;;;4983185;28;20480;-86
2024/03/11 04:45:29;;;;;;;59.13;41.58;;;7.70;99.90;;;;;;4978409;28;20304;-88
2024/03/11 04:47:57;;;;;;;54.83;40.53;;;7.60;99.90;;;;;;4976079;28;20141;-84
2024/03/11 04:50:25;;;;;;;57.00;41.28;;;7.60;99.90;;;;;;4991891;28;20048;-84
2024/03/11 04:52:56;;;;;;;55.53;39.90;;;7.60;99.90;;;;;;4973228;28;20034;-83
2024/03/11 04:55:23;;;;;;;59.63;42.55;;;7.60;99.90;;;;;;4991040;28;20052;-83
2024/03/11 04:57:52;;;;;;;55.95;40.80;;;7.60;99.90;;;;;;4975372;28;20036;-85
2024/03/11 05:00:18;;;;;;;51.90;38.38;;;7.60;99.90;;;;;;4982977;28;20510;-87
2024/03/11 05:02:45;;;;;;;49.25;36.90;;;7.60;99.90;;;;;;4967588;28;20049;-85
2024/03/11 05:05:11;;;;;;;59.55;43.53;;;7.60;99.90;;;;;;4990553;28;20427;-86
2024/03/11 05:07:37;;;;;;;58.70;43.72;;;7.60;99.90;;;;;;4974091;28;20108;-83
2024/03/11 05:10:05;;;;;;;57.58;42.55;;;7.50;99.90;;;;;;4989061;28;21820;-82
2024/03/11 05:12:31;;;;;;;68.72;47.38;;;7.50;99.90;;;;;;4989672;28;20057;-84
2024/03/11 05:15:01;;;;;;;59.88;42.97;;;7.50;99.90;;;;;;4977423;28;20044;-84
2024/03/11 05:17:27;;;;;;;54.75;39.95;;;7.50;99.90;;;;;;4996715;28;20049;-84
2024/03/11 05:19:54;;;;;;;64.10;46.22;;;7.50;99.90;;;;;;4983146;28;20425;-83
2024/03/11 05:22:23;;;;;;;71.32;49.25;;;7.50;99.90;;;;;;4993262;28;21863;-87
2024/03/11 05:24:50;;;;;;;61.30;43.95;;;7.50;99.90;;;;;;4992655;28;20043;-84
2024/03/11 05:27:20;;;;;;;63.03;43.35;;;7.50;99.90;;;;;;4991385;28;20049;-87
2024/03/11 05:29:46;;;;;;;65.78;45.80;;;7.50;99.90;;;;;;4975022;28;20025;-84
2024/03/11 05:32:13;;;;;;;68.57;47.72;;;7.50;99.90;;;;;;4958044;28;20056;-84
2024/03/11 05:34:39;;;;;;;69.40;46.58;;;7.50;99.90;;;;;;4977562;28;20469;-83
2024/03/11 05:37:06;;;;;;;85.32;57.33;;;7.50;99.90;;;;;;4979364;28;20037;-84
2024/03/11 05:39:34;;;;;;;71.85;47.95;;;7.40;99.90;;;;;;4995961;28;20570;-84
2024/03/11 05:42:05;;;;;;;72.68;49.13;;;7.50;99.90;;;;;;4957807;28;20397;-83
2024/03/11 05:44:35;;;;;;;67.93;45.90;;;7.50;99.90;;;;;;4987568;28;20057;-83
2024/03/11 05:47:02;;;;;;;75.85;49.97;;;7.50;99.90;;;;;;5003908;28;20033;-81
2024/03/11 05:49:28;;;;;;;65.35;46.03;;;7.50;99.90;;;;;;4970852;28;20033;-83
2024/03/11 05:51:55;;;;;;;66.25;45.63;;;7.50;99.90;;;;;;4959574;28;20033;-79
2024/03/11 05:54:24;;;;;;;69.05;46.05;;;7.50;99.90;;;;;;4983890;28;20037;-83
2024/03/11 05:56:56;;;;;;;68.47;47.90;;;7.50;99.90;;;;;;4977794;28;20591;-81
2024/03/11 05:59:23;;;;;;;78.40;51.28;;;7.50;99.90;;;;;;4991809;28;20050;-80
2024/03/11 06:01:51;;;;;;;67.10;46.55;;;7.50;99.90;;;;;;4974260;28;20037;-83
2024/03/11 06:04:18;;;;;;;73.97;49.72;;;7.50;99.90;;;;;;4976140;28;20048;-81
2024/03/11 06:06:46;;;;;;;72.65;48.90;;;7.50;99.90;;;;;;5009242;28;20044;-79
2024/03/11 06:09:14;;;;;;;81.30;53.05;;;7.50;99.90;;;;;;4974460;28;20403;-83
2024/03/11 06:11:44;;;;;;;80.03;51.75;;;7.50;99.90;;;;;;4964951;28;20038;-80
2024/03/11 06:14:14;;;;;;;73.20;48.55;;;7.50;99.90;;;;;;4992013;28;20037;-81
2024/03/11 06:16:45;;;;;;;74.97;49.50;;;7.50;99.90;;;;;;4969322;28;20056;-81
2024/03/11 06:19:16;;;;;;;66.85;45.45;;;7.50;99.90;;;;;;5019808;28;20022;-81
2024/03/11 06:21:43;;;;;;;66.28;45.03;;;7.50;99.90;;;;;;4957046;28;20415;-84
2024/03/11 06:24:10;;;;;;;64.22;44.05;;;7.60;99.90;;;;;;4956836;28;20138;-82
2024/03/11 06:26:37;;;;;;;61.03;41.72;;;7.60;99.90;;;;;;4964792;28;20416;-82
2024/03/11 06:29:06;;;;;;;58.33;39.50;;;7.60;99.90;;;;;;4962085;28;20045;-85
2024/03/11 06:31:33;;;;;;;66.75;42.75;;;7.60;99.90;;;;;;4984715;28;21069;-83
2024/03/11 06:34:02;;;;;;;63.45;41.53;;;7.60;99.90;;;;;;4971975;28;20048;-83
2024/03/11 06:36:30;;;;;;;57.40;38.85;;;7.60;99.90;;;;;;5003852;28;20073;-85
2024/03/11 06:38:58;;;;;;;55.85;37.55;;;7.60;99.90;;;;;;5005114;28;20038;-82
2024/03/11 06:41:25;;;;;;;57.75;37.40;;;7.70;99.90;;;;;;4979345;28;20037;-82
2024/03/11 06:43:53;;;;;;;62.97;40.63;;;7.70;99.90;;;;;;4968154;28;20033;-86
2024/03/11 06:46:19;;;;;;;59.85;39.63;;;7.70;99.90;;;;;;4977031;28;21165;-85
2024/03/11 06:48:45;;;;;;;58.13;38.50;;;7.70;99.90;;;;;;4967846;28;20048;-86
2024/03/11 06:51:12;;;;;;;62.28;39.45;;;7.70;99.90;;;;;;4989506;28;20040;-84
2024/03/11 06:53:39;;;;;;;57.53;37.20;;;7.70;99.90;;;;;;4970494;28;20041;-85
2024/03/11 06:56:07;;;;;;;56.65;37.17;;;7.70;99.90;;;;;;4993170;28;20049;-84
2024/03/11 06:58:34;;;;;;;60.13;40.08;;;7.70;99.90;;;;;;4980214;28;20037;-84
2024/03/11 07:01:00;;;;;;;63.08;40.92;;;7.70;99.90;;;;;;4991554;28;20042;-87
2024/03/11 07:03:29;;;;;;;57.78;36.72;;;7.80;99.90;;;;;;4982958;28;20056;-86
2024/03/11 07:06:00;;;;;;;58.53;38.67;;;7.80;99.90;;;;;;4986545;28;20034;-86
2024/03/11 07:08:27;;;;;;;63.40;39.97;;;7.70;99.90;;;;;;4958774;28;20029;-84
2024/03/11 07:10:55;;;;;;;61.33;39.15;;;7.80;99.90;;;;;;4978501;28;20044;-84
2024/03/11 07:13:21;;;;;;;71.55;46.95;;;7.80;99.90;;;;;;5002537;28;20033;-84
2024/03/11 07:15:48;;;;;;;73.53;45.30;;;7.80;99.90;;;;;;4968421;28;20040;-85
2024/03/11 07:18:17;;;;;;;64.28;41.00;;;7.80;99.90;;;;;;4989723;28;20583;-85
2024/03/11 07:20:45;;;;;;;62.97;40.83;;;7.80;99.90;;;;;;4975652;28;20412;-84
2024/03/11 07:23:12;;;;;;;66.43;44.78;;;7.80;99.90;;;;;;4992678;28;20488;-84
2024/03/11 07:25:39;;;;;;;74.55;47.55;;;7.80;99.90;;;;;;4976278;28;20394;-83
2024/03/11 07:28:08;;;;;;;75.03;48.63;;;7.80;99.90;;;;;;4994817;28;20037;-83
2024/03/11 07:30:35;;;;;;;70.65;44.75;;;7.80;99.90;;;;;;4984736;28;20358;-83
2024/03/11 07:33:08;;;;;;;69.28;45.17;;;7.80;99.90;;;;;;4976834;28;20045;-82
2024/03/11 07:35:37;;;;;;;76.15;46.78;;;7.80;99.90;;;;;;5004676;28;20056;-82
2024/03/11 07:38:07;;;;;;;68.72;44.65;;;7.80;99.90;;;;;;4986686;28;22175;-82
2024/03/11 07:40:37;;;;;;;74.63;48.25;;;7.80;99.90;;;;;;4983532;28;20053;-82
2024/03/11 07:43:06;;;;;;;68.57;45.20;;;7.80;99.90;;;;;;4988419;28;20128;-80
2024/03/11 07:45:33;;;;;;;66.35;42.85;;;7.80;99.90;;;;;;4996497;28;20025;-83
2024/03/11 07:48:01;;;;;;;77.03;47.10;;;7.80;99.90;;;;;;5027481;28;20910;-83
2024/03/11 07:50:28;;;;;;;73.97;46.42;;;7.80;99.90;;;;;;4991372;28;20033;-82
2024/03/11 07:52:54;;;;;;;81.88;52.28;;;7.80;99.90;;;;;;4959125;28;20032;-82
2024/03/11 07:55:25;;;;;;;75.28;47.78;;;7.80;99.90;;;;;;4992968;28;20046;-82
2024/03/11 07:57:51;;;;;;;74.72;45.80;;;7.80;99.90;;;;;;4990949;28;20030;-83
2024/03/11 08:00:18;;;;;;;68.88;44.08;;;7.70;99.90;;;;;;5008380;28;20030;-81
2024/03/11 08:02:47;;;;;;;64.88;42.20;;;7.70;99.90;;;;;;4965430;28;20468;-82
2024/03/11 08:05:14;;;;;;;64.35;39.63;;;7.80;99.90;;;;;;4977882;28;20589;-82
2024/03/11 08:07:43;;;;;;;65.75;42.30;;;7.80;99.90;;;;;;4989452;28;20048;-83
2024/03/11 08:10:12;;;;;;;68.57;45.28;;;7.80;99.90;;;;;;4973800;28;20045;-83
2024/03/11 08:12:39;;;;;;;71.45;44.75;;;7.80;99.90;;;;;;4973224;28;20041;-82
2024/03/11 08:15:10;;;;;;;84.22;50.85;;;7.80;99.90;;;;;;4991500;28;21231;-81
2024/03/11 08:17:37;;;;;;;91.63;55.05;;;7.80;99.90;;;;;;5005859;28;20045;-82
2024/03/11 08:20:08;;;;;;;85.30;53.72;;;7.80;99.90;;;;;;4997791;28;20037;-84
2024/03/11 08:22:37;;;;;;;70.90;45.05;;;7.70;99.90;;;;;;4973049;28;20049;-82
2024/03/11 08:25:07;;;;;;;74.40;46.75;;;7.70;99.90;;;;;;4990923;28;20056;-83
2024/03/11 08:27:33;;;;;;;80.75;48.67;;;7.80;99.90;;;;;;4957748;28;20055;-83
2024/03/11 08:30:00;;;;;;;80.28;50.67;;;7.70;99.90;;;;;;4977070;28;20045;-82
2024/03/11 08:32:26;;;;;;;89.13;53.08;;;7.70;99.90;;;;;;4981724;28;20860;-82
2024/03/11 08:34:56;;;;;;;96.15;56.33;;;7.70;99.90;;;;;;4999895;28;20057;-82
2024/03/11 08:37:23;;;;;;;92.70;53.10;;;7.70;99.90;;;;;;4968798;28;20042;-84
2024/03/11 08:39:51;;;;;;;99.47;58.60;;;7.70;99.90;;;;;;4966620;28;20519;-83
2024/03/11 08:42:19;;;;;;;96.07;57.63;;;7.70;99.90;;;;;;4986746;28;20034;-83
2024/03/11 08:44:47;;;;;;;92.43;54.65;;;7.70;99.90;;;;;;4987434;28;20490;-83
2024/03/11 08:47:13;;;;;;;85.50;50.35;;;7.70;99.90;;;;;;4986044;28;20044;-83
2024/03/11 08:49:40;;;;;;;103.05;60.78;;;7.70;99.90;;;;;;4985964;28;20045;-83
2024/03/11 08:52:06;;;;;;;92.18;56.10;;;7.80;99.90;;;;;;4971069;28;20676;-83
2024/03/11 08:54:35;;;;;;;89.93;52.88;;;7.70;99.90;;;;;;4986558;28;20057;-83
2024/03/11 08:57:01;;;;;;;88.47;54.40;;;7.70;99.90;;;;;;4985330;28;20372;-82
2024/03/11 08:59:30;;;;;;;90.03;53.72;;;7.70;99.90;;;;;;4972581;28;20033;-84
2024/03/11 09:01:57;;;;;;;82.10;48.90;;;7.70;99.90;;;;;;5003674;28;20040;-83
2024/03/11 09:04:24;;;;;;;83.97;49.33;;;7.70;99.90;;;;;;5018379;28;20038;-84
2024/03/11 09:06:50;;;;;;;85.03;49.22;;;7.70;99.90;;;;;;4985780;28;20032;-84
2024/03/11 09:09:24;;;;;;;83.45;49.70;;;7.80;99.90;;;;;;4986161;28;20029;-83
2024/03/11 09:11:58;;;;;;;94.68;53.88;;;7.80;99.90;;;;;;5005267;28;20424;-82
2024/03/11 09:14:25;;;;;;;85.10;50.00;;;7.80;99.90;;;;;;4987256;28;20493;-84
2024/03/11 09:16:56;;;;;;;78.53;46.65;;;7.90;99.90;;;;;;4968503;28;20048;-84
2024/03/11 09:19:23;;;;;;;79.80;48.42;;;7.80;99.90;;;;;;5005097;28;20033;-84
2024/03/11 09:21:51;;;;;;;83.35;50.00;;;7.80;99.90;;;;;;5000069;28;20044;-84
2024/03/11 09:24:20;;;;;;;83.72;51.53;;;7.80;99.90;;;;;;5004195;28;20045;-83
2024/03/11 09:26:50;;;;;;;82.50;48.50;;;7.90;99.90;;;;;;5002624;28;20033;-83
2024/03/11 09:29:20;;;;;;;88.80;51.95;;;7.80;99.90;;;;;;4984478;28;20037;-83
2024/03/11 09:31:50;;;;;;;83.15;50.33;;;7.90;99.90;;;;;;5001224;28;22938;-83
2024/03/11 09:34:17;;;;;;;82.13;49.55;;;7.90;99.90;;;;;;4975541;28;20049;-84
2024/03/11 09:36:44;;;;;;;96.18;57.63;;;7.90;99.90;;;;;;5005441;28;20548;-83
2024/03/11 09:39:12;;;;;;;92.78;53.70;;;7.90;99.90;;;;;;5008565;28;20038;-83
2024/03/11 09:41:43;;;;;;;91.57;52.40;;;7.90;99.90;;;;;;5005851;28;20037;-84
2024/03/11 09:44:15;;;;;;;89.05;51.97;;;7.80;99.90;;;;;;5009993;28;20696;-84
2024/03/11 09:46:45;;;;;;;95.40;57.78;;;7.80;99.90;;;;;;5034328;28;20045;-83
2024/03/11 09:49:15;;;;;;;85.22;49.10;;;7.80;99.90;;;;;;5021399;28;20033;-85
2024/03/11 09:51:46;;;;;;;86.40;49.72;;;7.80;99.90;;;;;;5002787;28;20673;-84
2024/03/11 09:54:13;;;;;;;78.38;45.53;;;7.90;99.90;;;;;;4990721;28;20060;-84
2024/03/11 09:56:48;;;;;;;81.60;50.63;;;7.80;99.90;;;;;;4976497;28;20543;-84
2024/03/11 09:59:20;;;;;;;90.82;54.80;;;7.80;99.90;;;;;;5007606;28;20041;-84
2024/03/11 10:01:54;;;;;;;81.10;48.00;;;7.80;99.90;;;;;;5004692;28;20201;-85
2024/03/11 10:04:26;;;;;;;76.95;46.20;;;7.80;99.90;;;;;;5004842;28;20040;-84
2024/03/11 10:06:59;;;;;;;83.07;47.90;;;7.80;99.90;;;;;;5008025;28;20040;-85
2024/03/11 10:09:28;;;;;;;;;;;7.80;99.90;;;;;;4977106;28;20029;-84
2024/03/11 10:12:07;;;;;;;82.15;48.28;;;7.90;99.90;;;;;;5021540;28;19913;-86
2024/03/11 10:14:38;;;;;;;77.78;45.10;;;7.90;99.90;;;;;;4992360;28;20241;-85
2024/03/11 10:17:28;;;;;;;79.40;44.63;;;7.90;99.90;;;;;;4988678;28;20041;-84
2024/03/11 10:19:59;;;;;;;72.70;43.95;;;7.90;99.90;;;;;;4992239;28;20994;-85
2024/03/11 10:22:28;;;;;;;77.60;44.53;;;7.90;99.90;;;;;;4974242;28;20048;-84
2024/03/11 10:24:58;;;;;;;79.15;44.75;;;7.90;99.90;;;;;;4990872;28;20053;-84
2024/03/11 10:27:39;;;;;;;91.13;49.53;;;7.90;99.90;;;;;;4989231;28;20037;-85
2024/03/11 10:30:25;;;;;;;85.28;47.47;;;7.90;99.90;;;;;;4976441;28;20348;-84
2024/03/11 10:32:57;;;;;;;85.95;48.47;;;7.90;99.90;;;;;;5022058;28;20029;-84
2024/03/11 10:35:26;;;;;;;81.10;46.90;;;7.90;99.90;;;;;;5005744;28;20349;-85
2024/03/11 10:38:12;;;;;;;80.25;46.00;;;7.90;99.90;;;;;;4987048;28;20026;-84
2024/03/11 10:40:44;;;;;;;92.07;53.08;;;7.90;99.90;;;;;;4992415;28;20037;-85
2024/03/11 10:43:20;;;;;;;78.97;44.67;;;7.90;99.90;;;;;;5004821;28;20432;-85
2024/03/11 10:45:47;;;;;;;82.10;47.80;;;7.90;99.90;;;;;;4989782;28;20044;-85
2024/03/11 10:48:15;;;;;;;79.03;44.97;;;7.90;99.90;;;;;;4990033;28;20633;-85
2024/03/11 10:50:42;;;;;;;77.70;44.92;;;8.00;99.90;;;;;;4972881;28;20432;-85
2024/03/11 10:53:26;;;;;;;79.05;45.88;;;8.00;99.90;;;;;;5021466;28;20428;-84
2024/03/11 10:55:58;;;;;;;76.07;41.85;;;8.00;99.90;;;;;;4988304;28;20045;-84
2024/03/11 10:58:31;;;;;;;71.85;42.55;;;8.00;99.90;;;;;;5001269;28;20044;-84
2024/03/11 11:01:01;;;;;;;77.28;46.67;;;8.10;99.90;;;;;;4974519;28;20044;-84
2024/03/11 11:03:31;;;;;;;82.68;48.78;;;8.10;99.90;;;;;;5005387;28;20028;-84
2024/03/11 11:06:14;;;;;;;82.82;48.72;;;8.10;99.90;;;;;;5024733;28;20680;-83
2024/03/11 11:08:44;;;;;;;84.97;46.92;;;8.10;99.90;;;;;;4988673;28;20393;-83
2024/03/11 11:11:17;;;;;;;80.75;47.13;;;8.10;99.90;;;;;;4987155;28;20424;-83
2024/03/11 11:13:48;;;;;;;80.38;47.15;;;8.10;99.90;;;;;;4973264;28;20065;-83
2024/03/11 11:16:18;;;;;;;86.38;48.35;;;8.10;99.90;;;;;;5018613;28;20041;-84
2024/03/11 11:18:46;;;;;;;84.45;48.05;;;8.10;99.90;;;;;;5018867;28;21898;-82
2024/03/11 11:21:16;;;;;;;79.95;46.47;;;8.10;99.90;;;;;;4990781;28;20041;-83
2024/03/11 11:23:43;;;;;;;80.57;46.55;;;8.10;99.90;;;;;;5004365;28;20584;-83
2024/03/11 11:26:10;;;;;;;81.90;47.17;;;8.20;99.90;;;;;;5006906;28;20029;-83
2024/03/11 11:28:37;;;;;;;87.22;50.53;;;8.10;99.90;;;;;;4987038;28;20444;-83
2024/03/11 11:31:14;;;;;;;82.50;48.22;;;8.20;99.90;;;;;;4974767;28;20481;-83
2024/03/11 11:33:56;;;;;;;83.88;48.53;;;8.20;99.90;;;;;;4989075;28;20037;-83
2024/03/11 11:36:39;;;;;;;82.53;48.22;;;8.20;99.90;;;;;;5020374;28;20500;-83
2024/03/11 11:39:20;;;;;;;78.30;49.45;;;8.20;99.90;;;;;;4989399;28;20052;-83
2024/03/11 11:41:49;;;;;;;81.20;48.90;;;8.20;99.90;;;;;;4989974;28;20071;-84
2024/03/11 11:44:27;;;;;;;91.57;54.40;;;8.20;99.90;;;;;;5008064;28;20039;-84
2024/03/11 11:47:03;;;;;;;84.18;49.97;;;8.20;99.90;;;;;;5005380;28;20705;-86
2024/03/11 11:49:34;;;;;;;80.00;45.90;;;8.20;99.90;;;;;;5023706;28;20048;-85
2024/03/11 11:52:06;;;;;;;90.68;51.20;;;8.20;99.90;;;;;;5008982;28;20030;-86
2024/03/11 11:54:35;;;;;;;78.90;45.90;;;8.20;99.90;;;;;;4991398;28;20095;-84
2024/03/11 11:57:15;;;;;;;75.93;43.38;;;8.20;99.90;;;;;;4989434;28;20036;-85
2024/03/11 11:59:47;;;;;;;80.78;47.10;;;8.20;99.90;;;;;;4987449;28;20037;-85
2024/03/11 12:02:33;;;;;;;86.30;46.65;;;8.30;99.90;;;;;;5007058;28;20052;-86
2024/03/11 12:05:00;;;;;;;67.95;41.83;;;8.30;99.90;;;;;;4991832;28;20064;-86
2024/03/11 12:07:28;;;;;;;73.57;43.67;;;8.40;99.90;;;;;;4973394;28;20041;-85
2024/03/11 12:10:01;;;;;;;79.72;47.05;;;8.40;99.90;;;;;;4976972;28;20041;-85
2024/03/11 12:12:28;;;;;;;71.90;44.25;;;8.40;99.90;;;;;;4990318;28;20025;-88
2024/03/11 12:14:56;;;;;;;83.95;48.75;;;8.50;99.90;;;;;;4976543;28;20040;-87
2024/03/11 12:17:28;;;;;;;68.75;42.92;;;8.50;99.90;;;;;;4990075;28;21186;-86
2024/03/11 12:23:00;;;;;;;73.93;43.72;;;8.50;99.90;;;;;;5004747;28;20045;-87
2024/03/11 12:25:28;;;;;;;79.53;44.38;;;8.50;99.90;;;;;;4987538;28;20404;-87
2024/03/11 12:28:07;;;;;;;76.78;45.08;;;8.50;99.90;;;;;;5006975;28;20472;-86
2024/03/11 12:30:36;;;;;;;69.47;40.92;;;8.50;99.90;;;;;;5006897;28;20045;-87
2024/03/11 12:33:06;;;;;;;74.60;46.65;;;8.50;99.90;;;;;;4987880;28;20034;-88
2024/03/11 12:35:36;;;;;;;71.32;45.38;;;8.50;99.90;;;;;;5002602;28;20404;-86
2024/03/11 12:38:05;;;;;;;62.45;40.42;;;8.50;99.90;;;;;;5004150;28;20061;-86
2024/03/11 12:40:34;;;;;;;61.13;39.38;;;8.50;99.90;;;;;;5007145;28;20037;-86
2024/03/11 12:43:20;;;;;;;60.72;37.78;;;8.50;99.90;;;;;;5008106;28;20030;-87
2024/03/11 12:45:55;;;;;;;60.25;35.17;;;8.50;99.90;;;;;;4990002;28;20057;-86
2024/03/11 12:48:23;;;;;;;63.17;38.45;;;8.50;99.90;;;;;;5001460;28;20041;-86
2024/03/11 12:50:53;;;;;;;64.40;38.65;;;8.50;99.90;;;;;;4971422;28;20049;-88